Time;durP1;ratioP1;P1;durP2;ratioP2;P2;SDS_P1;SDS_P2;PMS_P1;PMS_P2;Temp;Humidity;BMP_temperature;BMP_pressure;BME280_temperature;BME280_humidity;BME280_pressure;Samples;Min_cycle;Max_cycle;Signal;HPM_P1;HPM_P2
2021/10/04 00:01:50;;;;;;;17.15;13.60;;;;;;;16.54;85.86;100434.69;5008263;28;20155;-80
2021/10/04 00:04:17;;;;;;;18.58;13.68;;;;;;;16.49;86.51;100453.69;5006866;28;20054;-79
2021/10/04 00:06:45;;;;;;;17.30;13.68;;;;;;;16.54;86.30;100459.44;5009878;28;20408;-82
2021/10/04 00:09:12;;;;;;;18.23;13.15;;;;;;;16.66;85.45;100461.03;5010926;28;20172;-82
2021/10/04 00:11:40;;;;;;;17.77;12.18;;;;;;;16.75;84.88;100448.78;5013907;28;20049;-82
2021/10/04 00:14:08;;;;;;;19.00;11.65;;;;;;;16.69;85.98;100451.94;5004528;28;20062;-83
2021/10/04 00:16:36;;;;;;;15.15;11.40;;;;;;;16.78;85.57;100466.28;4996773;28;20050;-82
2021/10/04 00:19:04;;;;;;;13.75;11.18;;;;;;;16.88;85.13;100467.97;5012312;28;20045;-82
2021/10/04 00:21:31;;;;;;;18.20;10.43;;;;;;;16.94;84.97;100467.47;5011405;28;20057;-80
2021/10/04 00:23:58;;;;;;;13.27;9.82;;;;;;;16.95;84.83;100471.78;4990134;28;20060;-83
2021/10/04 00:26:26;;;;;;;18.42;10.43;;;;;;;17.00;85.06;100473.22;5011663;28;20476;-81
2021/10/04 00:28:53;;;;;;;15.15;10.35;;;;;;;17.03;84.66;100479.09;5006885;28;20198;-82
2021/10/04 00:31:20;;;;;;;14.68;9.27;;;;;;;17.08;84.20;100482.19;4993049;28;20050;-81
2021/10/04 00:33:48;;;;;;;14.80;10.10;;;;;;;16.99;84.85;100476.84;5018023;28;20167;-82
2021/10/04 00:36:15;;;;;;;13.00;9.48;;;;;;;17.14;84.38;100472.81;5011624;28;20086;-81
2021/10/04 00:38:43;;;;;;;14.00;9.57;;;;;;;17.09;84.49;100481.22;5011796;28;20532;-80
2021/10/04 00:41:10;;;;;;;10.30;9.18;;;;;;;17.03;85.26;100480.94;5014890;28;20434;-80
2021/10/04 00:43:38;;;;;;;12.60;9.88;;;;;;;17.11;84.99;100487.25;5017535;28;20046;-80
2021/10/04 00:46:06;;;;;;;14.05;9.52;;;;;;;17.09;84.64;100491.00;5030023;28;20125;-81
2021/10/04 00:48:33;;;;;;;12.32;8.93;;;;;;;17.07;85.09;100480.53;5030115;28;20065;-81
2021/10/04 00:51:01;;;;;;;12.43;9.05;;;;;;;17.10;85.08;100487.38;5026047;28;20132;-82
2021/10/04 00:53:28;;;;;;;10.50;8.73;;;;;;;17.12;84.94;100485.44;5013675;28;20475;-80
2021/10/04 00:55:55;;;;;;;13.88;9.50;;;;;;;17.06;85.78;100484.13;5004273;28;20061;-81
2021/10/04 00:58:23;;;;;;;9.85;7.95;;;;;;;17.06;85.96;100481.47;5010956;28;20057;-82
2021/10/04 01:00:50;;;;;;;10.18;8.32;;;;;;;17.14;85.61;100488.78;4997513;28;20497;-83
2021/10/04 01:03:18;;;;;;;8.68;7.75;;;;;;;17.19;85.51;100489.22;5004300;28;20511;-83
2021/10/04 01:05:45;;;;;;;10.48;8.05;;;;;;;17.12;86.00;100480.94;4980040;28;20049;-81
2021/10/04 01:08:13;;;;;;;9.60;7.78;;;;;;;17.15;86.07;100496.63;5007433;28;20484;-84
2021/10/04 01:10:40;;;;;;;10.73;8.07;;;;;;;17.10;86.82;100514.81;4986146;28;20056;-81
2021/10/04 01:13:07;;;;;;;9.30;7.75;;;;;;;17.11;87.44;100505.00;5012223;28;20381;-83
2021/10/04 01:15:35;;;;;;;10.73;8.10;;;;;;;16.98;88.39;100510.59;5006236;28;20525;-80
2021/10/04 01:18:05;;;;;;;13.18;9.10;;;;;;;16.99;88.79;100508.75;5012455;28;20065;-82
2021/10/04 01:20:32;;;;;;;11.13;8.50;;;;;;;16.96;89.35;100515.19;5006004;28;20048;-80
2021/10/04 01:23:00;;;;;;;17.02;8.38;;;;;;;16.96;89.64;100525.81;5013337;28;20520;-82
2021/10/04 01:25:28;;;;;;;13.38;9.05;;;;;;;16.81;90.58;100527.16;5004047;28;20521;-81
2021/10/04 01:27:57;;;;;;;12.88;9.10;;;;;;;16.90;90.66;100521.03;4989833;28;20049;-81
2021/10/04 01:30:26;;;;;;;11.32;8.30;;;;;;;16.88;90.97;100525.63;5006212;28;20112;-81
2021/10/04 01:32:54;;;;;;;12.25;8.80;;;;;;;16.84;91.60;100541.03;5009314;28;20050;-82
2021/10/04 01:35:23;;;;;;;9.93;7.80;;;;;;;16.86;91.84;100535.56;4985011;28;20639;-81
2021/10/04 01:37:50;;;;;;;12.02;7.82;;;;;;;16.77;92.04;100539.03;4969825;28;20046;-80
2021/10/04 01:40:18;;;;;;;13.10;8.13;;;;;;;16.67;93.25;100545.09;5002068;28;20061;-81
2021/10/04 01:42:45;;;;;;;11.13;7.53;;;;;;;16.62;94.06;100557.13;4999864;28;20037;-80
2021/10/04 01:45:17;;;;;;;10.73;8.02;;;;;;;16.73;93.83;100554.41;5001521;28;20054;-81
2021/10/04 01:47:44;;;;;;;9.02;7.32;;;;;;;16.67;94.45;100570.84;5007244;28;20057;-82
2021/10/04 01:50:13;;;;;;;8.80;6.10;;;;;;;16.66;94.16;100572.66;5002266;28;20049;-80
2021/10/04 01:52:41;;;;;;;11.95;6.70;;;;;;;16.61;94.30;100572.19;5007103;28;20501;-82
2021/10/04 01:55:09;;;;;;;9.90;6.88;;;;;;;16.64;94.06;100584.38;5003145;28;20064;-81
2021/10/04 01:57:36;;;;;;;7.18;6.10;;;;;;;16.48;95.57;100586.66;5008156;28;20076;-81
2021/10/04 02:00:07;;;;;;;9.05;6.22;;;;;;;16.42;96.84;100594.16;5005443;28;20066;-83
2021/10/04 02:02:34;;;;;;;15.52;6.03;;;;;;;16.33;97.65;100596.75;5008549;28;20390;-81
2021/10/04 02:05:02;;;;;;;7.82;5.70;;;;;;;16.31;97.88;100596.06;4992834;28;20064;-80
2021/10/04 02:07:30;;;;;;;7.97;5.45;;;;;;;16.18;98.72;100598.88;5015578;28;20033;-80
2021/10/04 02:09:57;;;;;;;6.32;4.88;;;;;;;16.18;99.41;100593.56;5004040;28;20590;-82
2021/10/04 02:12:25;;;;;;;6.88;5.57;;;;;;;16.10;99.80;100602.16;5008222;28;20057;-81
2021/10/04 02:14:52;;;;;;;7.60;5.18;;;;;;;16.07;100.00;100604.22;5004994;28;20060;-80
2021/10/04 02:17:19;;;;;;;8.43;5.20;;;;;;;16.01;100.00;100616.19;5008453;28;20100;-81
2021/10/04 02:19:47;;;;;;;6.63;4.70;;;;;;;16.12;99.66;100602.03;5003011;28;20062;-82
2021/10/04 02:22:14;;;;;;;6.35;3.75;;;;;;;16.08;99.58;100613.91;5007660;28;20068;-80
2021/10/04 02:24:41;;;;;;;3.70;3.05;;;;;;;16.00;99.72;100614.50;5007481;28;20392;-82
2021/10/04 02:27:09;;;;;;;5.18;3.40;;;;;;;15.76;100.00;100611.19;5011419;28;20063;-81
2021/10/04 02:29:36;;;;;;;3.85;3.08;;;;;;;15.74;100.00;100610.47;5008734;28;20050;-84
2021/10/04 02:32:04;;;;;;;3.97;3.08;;;;;;;15.69;100.00;100616.16;5024159;28;20059;-82
2021/10/04 02:34:32;;;;;;;4.00;2.88;;;;;;;15.56;100.00;100621.56;5005150;28;20501;-82
2021/10/04 02:37:00;;;;;;;3.50;2.17;;;;;;;15.69;100.00;100629.44;5013097;28;20068;-80
2021/10/04 02:39:27;;;;;;;5.50;2.38;;;;;;;15.68;100.00;100630.41;4994432;28;20623;-81
2021/10/04 02:41:54;;;;;;;2.72;1.90;;;;;;;15.63;100.00;100635.22;4990777;28;20056;-80
2021/10/04 02:44:22;;;;;;;2.80;1.80;;;;;;;15.66;100.00;100641.13;5008638;28;20053;-79
2021/10/04 02:46:49;;;;;;;2.80;2.00;;;;;;;15.69;100.00;100638.22;4998708;28;20502;-81
2021/10/04 02:49:17;;;;;;;2.83;1.92;;;;;;;15.62;100.00;100631.69;5008235;28;20066;-81
2021/10/04 02:51:44;;;;;;;3.13;1.80;;;;;;;15.57;100.00;100631.22;5012818;28;20058;-81
2021/10/04 02:54:15;;;;;;;1.67;1.40;;;;;;;15.52;100.00;100635.19;5015265;28;20335;-81
2021/10/04 02:56:42;;;;;;;2.80;1.52;;;;;;;15.48;100.00;100642.56;5003872;28;20076;-82
2021/10/04 02:59:13;;;;;;;4.82;1.77;;;;;;;15.49;100.00;100643.41;5020848;28;20106;-82
2021/10/04 03:01:41;;;;;;;2.45;1.35;;;;;;;15.49;100.00;100646.91;5017059;28;20056;-80
2021/10/04 03:04:09;;;;;;;2.22;1.25;;;;;;;15.46;100.00;100652.47;5013072;28;20053;-82
2021/10/04 03:06:37;;;;;;;3.53;1.10;;;;;;;15.36;100.00;100662.13;5007103;28;20137;-81
2021/10/04 03:09:04;;;;;;;5.07;1.25;;;;;;;15.42;100.00;100656.31;5005809;28;20386;-81
2021/10/04 03:11:32;;;;;;;2.28;1.27;;;;;;;15.51;100.00;100662.69;5010008;28;20153;-81
2021/10/04 03:14:00;;;;;;;4.05;1.20;;;;;;;15.39;100.00;100664.50;5008430;28;20056;-81
2021/10/04 03:16:27;;;;;;;2.63;1.30;;;;;;;15.38;100.00;100661.00;4989683;28;20476;-79
2021/10/04 03:18:55;;;;;;;2.83;1.27;;;;;;;15.31;100.00;100675.72;5001186;28;20079;-80
2021/10/04 03:21:22;;;;;;;2.30;1.55;;;;;;;15.23;100.00;100666.69;5018285;28;20515;-80
2021/10/04 03:23:50;;;;;;;2.03;1.20;;;;;;;15.19;100.00;100666.06;5000289;28;20052;-82
2021/10/04 03:26:17;;;;;;;2.67;1.52;;;;;;;15.11;100.00;100671.13;5015087;28;20050;-80
2021/10/04 03:28:44;;;;;;;2.00;1.33;;;;;;;15.13;100.00;100671.81;4994158;28;20057;-82
2021/10/04 03:31:12;;;;;;;1.30;1.02;;;;;;;15.14;100.00;100681.50;5012519;28;20642;-81
2021/10/04 03:33:39;;;;;;;2.30;1.20;;;;;;;15.11;100.00;100689.69;5012219;28;20530;-81
2021/10/04 03:36:07;;;;;;;2.22;0.80;;;;;;;15.17;100.00;100699.78;5011427;28;20408;-80
2021/10/04 03:38:35;;;;;;;1.73;1.30;;;;;;;15.06;100.00;100708.59;5003284;28;20480;-81
2021/10/04 03:41:03;;;;;;;1.10;0.93;;;;;;;15.00;100.00;100705.56;5013713;28;20042;-80
2021/10/04 03:43:30;;;;;;;1.63;1.10;;;;;;;14.89;100.00;100717.81;4994970;28;20488;-80
2021/10/04 03:45:58;;;;;;;2.33;1.25;;;;;;;14.92;100.00;100724.69;5014944;28;20057;-82
2021/10/04 03:48:25;;;;;;;3.70;0.95;;;;;;;14.84;100.00;100733.22;4997098;28;20067;-81
2021/10/04 03:50:52;;;;;;;3.13;1.05;;;;;;;14.73;100.00;100738.50;4995969;28;20059;-79
2021/10/04 03:53:20;;;;;;;1.58;0.90;;;;;;;14.71;100.00;100736.91;4995752;28;21201;-78
2021/10/04 03:55:48;;;;;;;2.53;1.30;;;;;;;14.64;100.00;100732.06;4998938;28;20523;-80
2021/10/04 03:58:16;;;;;;;2.00;1.10;;;;;;;14.50;100.00;100724.31;5011926;28;20068;-82
2021/10/04 04:00:43;;;;;;;5.60;3.58;;;;;;;14.44;100.00;100728.19;5007810;28;20041;-78
2021/10/04 04:03:12;;;;;;;3.97;2.10;;;;;;;14.44;100.00;100732.66;5007708;28;20064;-80
2021/10/04 04:05:39;;;;;;;3.65;1.40;;;;;;;14.36;100.00;100737.66;5005915;28;20050;-77
2021/10/04 04:08:11;;;;;;;3.75;1.20;;;;;;;14.20;100.00;100730.00;5006962;28;20042;-81
2021/10/04 04:10:39;;;;;;;2.22;1.83;;;;;;;14.23;100.00;100747.44;5005685;28;20057;-81
2021/10/04 04:13:07;;;;;;;5.78;1.33;;;;;;;14.32;100.00;100754.72;5026823;28;20057;-84
2021/10/04 04:15:37;;;;;;;2.50;1.13;;;;;;;14.13;100.00;100749.91;4999379;28;20041;-79
2021/10/04 04:18:06;;;;;;;3.40;1.33;;;;;;;14.16;100.00;100749.69;5002652;28;20049;-82
2021/10/04 04:20:34;;;;;;;1.08;0.77;;;;;;;14.11;100.00;100755.31;5012969;28;20041;-86
2021/10/04 04:23:04;;;;;;;1.65;0.82;;;;;;;14.02;100.00;100760.44;5018162;28;20136;-84
2021/10/04 04:25:32;;;;;;;1.00;0.75;;;;;;;14.04;100.00;100764.66;5014611;28;20057;-81
2021/10/04 04:28:05;;;;;;;1.48;0.80;;;;;;;14.07;100.00;100767.09;5006127;28;20517;-79
2021/10/04 04:30:34;;;;;;;2.72;0.77;;;;;;;14.00;100.00;100765.81;5008706;28;20056;-80
2021/10/04 04:33:06;;;;;;;1.52;0.68;;;;;;;13.99;100.00;100766.78;5010165;28;20060;-81
2021/10/04 04:35:34;;;;;;;1.88;0.80;;;;;;;13.87;100.00;100779.09;5008712;28;20046;-80
2021/10/04 04:38:02;;;;;;;1.95;0.98;;;;;;;13.95;100.00;100781.19;5013906;28;20064;-78
2021/10/04 04:40:31;;;;;;;0.90;0.73;;;;;;;14.02;100.00;100795.69;4991452;28;20081;-86
2021/10/04 04:42:59;;;;;;;2.50;0.93;;;;;;;13.97;100.00;100804.91;5009245;28;20068;-85
2021/10/04 04:45:26;;;;;;;2.25;1.08;;;;;;;14.01;100.00;100814.34;5009851;28;20050;-86
2021/10/04 04:47:57;;;;;;;2.20;0.90;;;;;;;14.17;100.00;100807.00;4984456;28;20058;-86
2021/10/04 04:50:24;;;;;;;1.15;0.70;;;;;;;14.10;100.00;100788.06;4999600;28;20068;-82
2021/10/04 04:52:52;;;;;;;2.15;0.80;;;;;;;14.09;100.00;100798.75;5012816;28;20041;-83
2021/10/04 04:55:20;;;;;;;2.58;0.90;;;;;;;14.13;100.00;100797.56;5005575;28;20054;-81
2021/10/04 04:57:48;;;;;;;3.72;0.98;;;;;;;14.09;100.00;100796.09;5006825;28;20067;-83
2021/10/04 05:00:18;;;;;;;1.42;0.70;;;;;;;14.13;100.00;100816.09;5003429;28;20477;-82
2021/10/04 05:03:18;;;;;;;0.90;0.80;;;;;;;14.06;100.00;100828.94;5020783;28;20053;-83
2021/10/04 05:05:52;;;;;;;2.22;1.02;;;;;;;14.06;100.00;100838.69;5009121;28;20046;-81
2021/10/04 05:08:19;;;;;;;1.42;0.63;;;;;;;13.98;100.00;100835.72;5011938;28;20049;-81
2021/10/04 05:10:47;;;;;;;1.95;0.60;;;;;;;14.04;100.00;100837.94;4978646;28;20369;-91
2021/10/04 05:13:15;;;;;;;1.52;0.70;;;;;;;14.07;100.00;100845.66;5007919;28;20045;-85
2021/10/04 05:15:44;;;;;;;1.88;0.70;;;;;;;14.09;100.00;100854.34;4987824;28;20054;-79
2021/10/04 05:18:12;;;;;;;2.45;0.90;;;;;;;13.99;100.00;100851.47;5013149;28;20040;-80
2021/10/04 05:20:40;;;;;;;1.77;0.90;;;;;;;13.96;100.00;100846.44;5011691;28;20061;-80
2021/10/04 05:23:08;;;;;;;3.35;0.98;;;;;;;13.84;100.00;100834.88;5012752;28;20042;-78
2021/10/04 05:25:35;;;;;;;2.97;0.70;;;;;;;13.89;100.00;100850.44;5008284;28;20063;-80
2021/10/04 05:28:03;;;;;;;1.00;0.57;;;;;;;13.87;100.00;100853.19;5008453;28;20052;-80
2021/10/04 05:30:30;;;;;;;1.30;0.80;;;;;;;13.91;100.00;100854.69;5003895;28;20050;-78
2021/10/04 05:32:58;;;;;;;2.67;0.93;;;;;;;13.93;100.00;100860.69;5010671;28;20076;-81
2021/10/04 05:35:26;;;;;;;3.30;1.00;;;;;;;13.82;100.00;100862.38;5005564;28;20124;-74
2021/10/04 05:37:54;;;;;;;0.73;0.60;;;;;;;13.86;100.00;100861.22;4985241;28;20041;-82
2021/10/04 05:40:21;;;;;;;2.08;0.90;;;;;;;13.89;100.00;100850.44;5008379;28;20045;-78
2021/10/04 05:42:49;;;;;;;2.38;0.63;;;;;;;13.97;100.00;100860.50;4992866;28;20050;-79
2021/10/04 05:45:16;;;;;;;1.42;0.60;;;;;;;13.87;100.00;100857.66;5012671;28;20049;-80
2021/10/04 05:47:47;;;;;;;1.25;0.75;;;;;;;13.78;100.00;100853.84;4990873;28;20050;-83
2021/10/04 05:50:15;;;;;;;2.22;1.13;;;;;;;13.80;100.00;100854.56;5016887;28;20380;-80
2021/10/04 05:52:42;;;;;;;1.00;0.70;;;;;;;13.89;100.00;100863.66;5012330;28;20054;-78
2021/10/04 05:55:10;;;;;;;2.58;1.00;;;;;;;14.02;100.00;100880.41;5007217;28;20225;-78
2021/10/04 05:57:38;;;;;;;4.00;0.75;;;;;;;14.03;100.00;100886.53;5009340;28;20057;-78
2021/10/04 06:00:07;;;;;;;1.98;0.98;;;;;;;13.99;100.00;100883.25;4993626;28;20053;-80
2021/10/04 06:02:35;;;;;;;3.90;1.20;;;;;;;14.03;100.00;100886.53;5011057;28;20042;-77
2021/10/04 06:05:05;;;;;;;2.30;1.10;;;;;;;14.11;100.00;100877.13;5006728;28;20472;-82
2021/10/04 06:07:34;;;;;;;4.43;1.30;;;;;;;14.01;100.00;100883.16;5009050;28;20050;-82
2021/10/04 06:10:04;;;;;;;3.60;0.98;;;;;;;14.16;100.00;100890.88;4987111;28;20064;-77
2021/10/04 06:12:34;;;;;;;2.10;1.05;;;;;;;13.99;98.29;100885.06;5014275;28;20053;-77
2021/10/04 06:15:03;;;;;;;4.88;2.00;;;;;;;14.09;98.34;100879.00;5004961;28;20072;-78
2021/10/04 06:17:32;;;;;;;6.95;1.63;;;;;;;14.18;96.65;100880.16;4999088;28;20373;-77
2021/10/04 06:19:59;;;;;;;7.13;1.30;;;;;;;14.26;96.56;100882.28;4990716;28;20052;-78
2021/10/04 06:22:27;;;;;;;10.23;1.73;;;;;;;14.25;96.40;100888.53;4998022;28;20068;-72
2021/10/04 06:24:55;;;;;;;6.05;1.60;;;;;;;14.27;96.28;100892.75;4989757;28;20046;-77
2021/10/04 06:27:22;;;;;;;8.40;1.70;;;;;;;14.29;96.29;100901.47;5015154;28;20049;-78
2021/10/04 06:29:50;;;;;;;5.25;1.67;;;;;;;14.22;96.45;100900.19;4992351;28;20038;-81
2021/10/04 06:32:17;;;;;;;2.25;1.15;;;;;;;14.19;96.58;100906.56;5015453;28;20041;-81
2021/10/04 06:34:44;;;;;;;6.75;1.90;;;;;;;14.04;95.90;100904.94;5007139;28;20049;-78
2021/10/04 06:37:12;;;;;;;3.42;1.10;;;;;;;14.12;96.94;100902.63;5018791;28;20060;-80
2021/10/04 06:39:39;;;;;;;6.50;2.00;;;;;;;14.32;96.80;100914.50;4994303;28;20341;-77
2021/10/04 06:42:08;;;;;;;8.68;1.52;;;;;;;14.41;95.99;100924.44;5007014;28;20354;-79
2021/10/04 06:44:35;;;;;;;6.53;1.58;;;;;;;14.26;97.12;100925.50;4989045;28;20058;-80
2021/10/04 06:47:03;;;;;;;2.95;1.05;;;;;;;14.11;96.54;100935.34;5009151;28;20045;-77
2021/10/04 06:49:33;;;;;;;3.90;0.88;;;;;;;14.05;97.32;100938.44;5010223;28;20076;-80
2021/10/04 06:52:01;;;;;;;5.53;1.45;;;;;;;14.04;96.16;100942.00;5009834;28;20046;-77
2021/10/04 06:54:28;;;;;;;5.93;1.50;;;;;;;14.04;96.92;100942.00;5007950;28;20154;-82
2021/10/04 06:56:55;;;;;;;8.27;1.98;;;;;;;14.16;98.69;100946.47;5014134;28;20459;-77
2021/10/04 06:59:23;;;;;;;7.07;1.40;;;;;;;14.44;95.08;100944.56;5008858;28;20392;-77
2021/10/04 07:01:50;;;;;;;2.72;1.58;;;;;;;14.36;95.52;100946.88;4975908;28;20077;-80
2021/10/04 07:04:18;;;;;;;3.17;1.08;;;;;;;14.18;96.83;100944.59;5003982;28;20056;-77
2021/10/04 07:06:45;;;;;;;4.97;1.15;;;;;;;14.40;96.58;100943.06;5011813;28;20052;-78
2021/10/04 07:09:13;;;;;;;5.05;1.23;;;;;;;14.43;96.12;100950.81;5010528;28;20527;-80
2021/10/04 07:11:42;;;;;;;3.38;0.93;;;;;;;14.28;94.79;100944.78;4994194;28;20054;-80
2021/10/04 07:14:10;;;;;;;3.58;1.10;;;;;;;14.38;95.23;100935.25;5021374;28;20061;-79
2021/10/04 07:16:37;;;;;;;6.50;1.15;;;;;;;14.35;95.43;100931.94;5004346;28;20102;-78
2021/10/04 07:19:05;;;;;;;4.60;1.10;;;;;;;14.53;94.68;100935.16;5011679;28;20064;-81
2021/10/04 07:21:33;;;;;;;5.50;1.08;;;;;;;14.44;94.23;100956.00;4996452;28;20056;-80
2021/10/04 07:24:00;;;;;;;2.85;1.20;;;;;;;14.52;94.25;100965.25;5029908;28;20081;-84
2021/10/04 07:26:30;;;;;;;5.07;1.08;;;;;;;14.56;95.70;100974.69;5013302;28;20097;-72
2021/10/04 07:28:57;;;;;;;3.85;0.95;;;;;;;14.80;93.77;100967.63;5011495;28;20061;-82
2021/10/04 07:31:24;;;;;;;4.40;1.20;;;;;;;14.80;92.70;100977.41;4997088;28;20109;-82
2021/10/04 07:33:52;;;;;;;3.38;1.13;;;;;;;14.77;92.78;100972.31;5016037;28;20577;-79
2021/10/04 07:36:19;;;;;;;6.30;1.35;;;;;;;14.90;93.00;100973.13;5017039;28;20054;-78
2021/10/04 07:38:47;;;;;;;2.63;1.20;;;;;;;14.78;93.51;100981.97;5017445;28;20046;-84
2021/10/04 07:41:14;;;;;;;4.97;1.63;;;;;;;14.79;93.64;100975.72;5013375;28;20050;-79
2021/10/04 07:43:41;;;;;;;4.95;1.00;;;;;;;14.81;93.14;100987.88;5009943;28;20373;-77
2021/10/04 07:46:09;;;;;;;3.25;1.10;;;;;;;14.79;91.83;100994.25;5009280;28;20049;-82
2021/10/04 07:48:37;;;;;;;2.20;1.00;;;;;;;14.71;92.42;100999.25;5010764;28;20051;-81
2021/10/04 07:51:05;;;;;;;3.50;1.00;;;;;;;14.68;92.62;101008.28;5015967;28;20492;-79
2021/10/04 07:53:33;;;;;;;3.28;1.27;;;;;;;14.70;92.96;101003.72;5009948;28;20489;-77
2021/10/04 07:56:01;;;;;;;5.05;1.08;;;;;;;14.63;93.80;100999.78;5010961;28;20044;-80
2021/10/04 07:58:28;;;;;;;2.53;1.00;;;;;;;14.63;91.93;101003.31;5017008;28;20053;-82
2021/10/04 08:00:56;;;;;;;6.15;0.98;;;;;;;14.59;91.77;100998.28;5017433;28;20392;-76
2021/10/04 08:03:25;;;;;;;3.97;0.80;;;;;;;14.46;92.75;101002.75;5008958;28;20050;-82
2021/10/04 08:05:52;;;;;;;3.42;1.13;;;;;;;14.77;91.61;100997.03;5018695;28;20061;-79
2021/10/04 08:08:19;;;;;;;2.58;0.98;;;;;;;14.84;90.45;100998.28;4994841;28;20042;-84
2021/10/04 08:10:47;;;;;;;3.05;0.88;;;;;;;15.09;89.22;101000.03;4998702;28;20069;-75
2021/10/04 08:13:15;;;;;;;5.25;0.75;;;;;;;15.45;85.05;101009.78;5007235;28;20064;-82
2021/10/04 08:15:43;;;;;;;1.45;0.70;;;;;;;15.76;82.93;101006.69;4983331;28;20501;-82
2021/10/04 08:18:11;;;;;;;1.63;0.75;;;;;;;15.76;80.37;101002.25;4999579;28;20049;-81
2021/10/04 08:20:38;;;;;;;5.50;0.63;;;;;;;15.72;80.07;101007.91;5016128;28;20060;-78
2021/10/04 08:23:06;;;;;;;2.65;1.23;;;;;;;15.47;79.65;101019.44;5020196;28;20049;-83
2021/10/04 08:25:33;;;;;;;4.20;1.40;;;;;;;15.36;80.29;101031.69;5018222;28;20052;-80
2021/10/04 08:28:01;;;;;;;2.47;0.95;;;;;;;15.46;81.09;101037.16;5018154;28;20049;-85
2021/10/04 08:30:28;;;;;;;4.40;1.20;;;;;;;15.72;80.57;101043.25;5019210;28;20488;-79
2021/10/04 08:32:56;;;;;;;2.70;1.27;;;;;;;15.83;79.62;101040.63;5014865;28;20408;-78
2021/10/04 08:35:23;;;;;;;3.90;1.10;;;;;;;15.46;79.59;101042.47;5013105;28;20042;-79
2021/10/04 08:37:51;;;;;;;3.05;1.20;;;;;;;15.44;78.61;101041.72;5009220;28;20053;-80
2021/10/04 08:40:20;;;;;;;2.58;0.70;;;;;;;15.52;78.84;101047.31;5015307;28;20053;-79
2021/10/04 08:42:47;;;;;;;4.88;1.20;;;;;;;15.70;78.19;101039.84;5012629;28;20064;-80
2021/10/04 08:45:15;;;;;;;7.53;1.55;;;;;;;15.68;78.65;101044.44;5011084;28;20067;-78
2021/10/04 08:47:43;;;;;;;4.97;1.13;;;;;;;15.77;76.19;101038.44;5024291;28;20054;-81
2021/10/04 08:50:14;;;;;;;4.07;1.33;;;;;;;15.76;75.85;101051.81;4992996;28;20052;-78
2021/10/04 08:52:42;;;;;;;9.48;1.83;;;;;;;15.68;76.69;101055.03;4993395;28;20060;-84
2021/10/04 08:55:10;;;;;;;5.53;1.15;;;;;;;15.34;77.15;101064.56;5006132;28;20495;-81
2021/10/04 08:57:37;;;;;;;7.85;1.60;;;;;;;15.20;77.52;101062.91;4995680;28;20060;-83
2021/10/04 09:00:07;;;;;;;19.02;2.85;;;;;;;15.13;77.52;101064.28;5001363;28;20056;-78
2021/10/04 09:02:36;;;;;;;10.07;2.05;;;;;;;15.15;76.27;101070.34;4999613;28;20049;-78
2021/10/04 09:05:10;;;;;;;10.20;1.23;;;;;;;15.22;76.71;101071.63;4993718;28;20064;-82
2021/10/04 09:07:51;;;;;;;11.93;1.75;;;;;;;15.18;76.75;101064.84;5003377;28;20088;-79
2021/10/04 09:10:23;;;;;;;5.88;1.48;;;;;;;15.01;76.63;101070.47;4992466;28;20053;-80
2021/10/04 09:13:02;;;;;;;7.40;1.38;;;;;;;15.02;77.36;101070.34;5008234;28;20068;-82
2021/10/04 09:15:40;;;;;;;7.75;1.55;;;;;;;14.87;77.88;101074.94;5001853;28;20041;-83
2021/10/04 09:18:22;;;;;;;4.93;1.30;;;;;;;14.88;78.73;101052.78;5003773;28;20388;-81
2021/10/04 09:21:05;;;;;;;3.70;1.20;;;;;;;15.06;78.48;101058.59;5014216;28;20068;-80
2021/10/04 09:23:34;;;;;;;9.38;1.48;;;;;;;15.18;77.55;101073.63;5001071;28;20050;-82
2021/10/04 09:26:04;;;;;;;6.15;1.40;;;;;;;15.18;77.45;101070.97;5003734;28;20097;-82
2021/10/04 09:28:33;;;;;;;6.07;1.20;;;;;;;15.29;77.11;101079.97;5004035;28;20058;-82
2021/10/04 09:31:24;;;;;;;6.72;1.75;;;;;;;15.48;77.04;101080.34;4991955;28;20045;-82
2021/10/04 09:34:04;;;;;;;13.80;2.40;;;;;;;15.61;76.11;101064.38;5008735;28;20060;-85
2021/10/04 09:36:45;;;;;;;5.28;1.58;;;;;;;15.53;76.23;101070.22;5003800;28;20077;-83
2021/10/04 09:39:24;;;;;;;4.80;1.38;;;;;;;15.27;76.69;101074.78;4995121;28;20054;-81
2021/10/04 09:42:00;;;;;;;8.75;1.33;;;;;;;15.32;77.45;101083.25;5002450;28;20099;-80
2021/10/04 09:44:57;;;;;;;8.00;1.65;;;;;;;15.42;77.03;101080.78;5004322;28;20373;-82
2021/10/04 09:47:30;;;;;;;8.95;1.80;;;;;;;15.34;78.20;101088.44;5005313;28;20066;-83
2021/10/04 09:50:18;;;;;;;8.63;1.80;;;;;;;15.55;76.63;101086.91;4987313;28;20060;-82
2021/10/04 09:52:48;;;;;;;6.40;2.33;;;;;;;15.41;77.05;101101.16;5003125;28;20065;-81
2021/10/04 09:55:30;;;;;;;4.50;1.70;;;;;;;15.57;76.54;101103.56;5019725;28;20052;-84
2021/10/04 09:58:03;;;;;;;6.25;1.98;;;;;;;15.65;75.61;101109.19;4991474;28;20081;-82
2021/10/04 10:00:35;;;;;;;6.55;1.55;;;;;;;15.65;75.76;101116.31;5010367;28;20053;-84
2021/10/04 10:03:04;;;;;;;6.22;1.48;;;;;;;15.66;76.33;101115.34;5013690;28;20193;-84
2021/10/04 10:05:34;;;;;;;9.82;1.80;;;;;;;15.47;77.05;101123.75;4987219;28;20539;-82
2021/10/04 10:08:03;;;;;;;3.63;1.73;;;;;;;15.82;75.61;101115.94;5008527;28;20058;-83
2021/10/04 10:10:35;;;;;;;5.30;1.40;;;;;;;15.85;75.13;101120.16;5004765;28;20308;-81
2021/10/04 10:13:05;;;;;;;8.70;1.40;;;;;;;15.78;75.29;101114.47;5013198;28;20057;-80
2021/10/04 10:15:34;;;;;;;6.20;1.98;;;;;;;15.70;75.65;101098.25;5005233;28;20050;-81
2021/10/04 10:18:16;;;;;;;7.82;1.80;;;;;;;15.86;75.49;101084.69;5007625;28;20654;-82
2021/10/04 10:20:44;;;;;;;8.57;2.13;;;;;;;15.93;74.21;101081.47;5005943;28;20067;-81
2021/10/04 10:23:12;;;;;;;15.48;2.70;;;;;;;16.28;74.56;101083.28;5004460;28;20064;-83
2021/10/04 10:25:41;;;;;;;6.95;1.75;;;;;;;16.22;73.81;101067.84;5002356;28;20050;-77
2021/10/04 10:28:30;;;;;;;4.05;1.70;;;;;;;16.23;72.96;101077.50;5026361;28;20061;-84
2021/10/04 10:30:58;;;;;;;4.50;1.33;;;;;;;16.19;73.67;101084.00;5014778;28;20049;-79
2021/10/04 10:33:50;;;;;;;7.32;2.13;;;;;;;16.63;71.68;101093.06;5012407;28;20042;-79
2021/10/04 10:36:55;;;;;;;6.75;2.00;;;;;;;16.37;70.88;101097.69;5008466;28;20064;-83
2021/10/04 10:39:35;;;;;;;8.95;1.70;;;;;;;16.40;69.09;101108.94;5012849;28;20041;-78
2021/10/04 10:42:16;;;;;;;6.93;1.85;;;;;;;16.39;70.62;101099.28;5012515;28;20042;-79
2021/10/04 10:44:54;;;;;;;8.60;1.60;;;;;;;16.50;69.57;101108.25;5010286;28;20046;-79
2021/10/04 10:47:33;;;;;;;10.68;2.63;;;;;;;16.39;69.68;101104.59;5013015;28;20541;-77
2021/10/04 10:50:15;;;;;;;9.18;2.13;;;;;;;16.40;70.50;101108.94;5010613;28;20045;-81
2021/10/04 10:52:45;;;;;;;5.03;1.60;;;;;;;16.54;70.44;101115.88;5030962;28;20057;-80
2021/10/04 10:55:33;;;;;;;4.10;1.45;;;;;;;16.62;70.51;101121.47;5007501;28;20396;-78
2021/10/04 10:58:12;;;;;;;3.03;1.60;;;;;;;16.54;69.80;101113.22;4997168;28;20388;-77
2021/10/04 11:00:50;;;;;;;5.35;1.63;;;;;;;16.26;70.62;101108.31;5012144;28;20496;-79
2021/10/04 11:03:23;;;;;;;7.55;1.80;;;;;;;16.12;71.77;101106.66;5009238;28;20054;-88
2021/10/04 11:05:57;;;;;;;5.97;1.83;;;;;;;16.23;69.52;101111.19;5019232;28;20046;-81
2021/10/04 11:08:27;;;;;;;6.00;1.80;;;;;;;16.30;69.31;101113.28;5022154;28;20122;-79
2021/10/04 11:10:57;;;;;;;9.18;1.77;;;;;;;16.38;69.50;101121.47;5021161;28;20064;-83
2021/10/04 11:13:29;;;;;;;7.50;1.55;;;;;;;16.40;68.88;101118.72;5015753;28;20055;-81
2021/10/04 11:16:00;;;;;;;13.32;1.98;;;;;;;16.30;69.75;101125.69;5011974;28;20045;-83
2021/10/04 11:18:42;;;;;;;7.57;2.08;;;;;;;16.31;69.88;101133.56;4998410;28;20051;-82
2021/10/04 11:21:28;;;;;;;11.25;2.08;;;;;;;16.38;70.76;101128.63;5008266;28;20064;-82
2021/10/04 11:23:57;;;;;;;;;;;;;;;16.34;70.90;101120.03;5010025;28;20046;-82
2021/10/04 11:26:24;;;;;;;6.30;1.50;;;;;;;16.36;71.04;101119.91;5013120;28;19925;-83
2021/10/04 11:28:57;;;;;;;6.97;1.65;;;;;;;16.38;70.14;101115.31;5015468;28;20042;-78
2021/10/04 11:31:28;;;;;;;6.25;1.52;;;;;;;16.57;70.21;101114.78;5015801;28;20058;-83
2021/10/04 11:33:57;;;;;;;8.65;1.77;;;;;;;16.71;70.40;101115.44;5018045;28;20053;-81